createdAt,value
2019-04-26T00:00:01.167Z,972.29
2019-04-26T00:01:01.080Z,972.32
2019-04-26T00:02:01.087Z,972.35
2019-04-26T00:03:01.048Z,972.36
2019-04-26T00:04:02.099Z,972.43
2019-04-26T00:05:01.029Z,972.38
2019-04-26T00:06:01.088Z,972.39
2019-04-26T00:07:01.007Z,972.42
2019-04-26T00:08:01.110Z,972.35
2019-04-26T00:09:02.051Z,972.36
2019-04-26T00:10:00.972Z,972.38
2019-04-26T00:11:01.012Z,972.34
2019-04-26T00:12:00.952Z,972.36
2019-04-26T00:13:01.973Z,972.37
2019-04-26T00:14:00.959Z,972.35
2019-04-26T00:15:00.920Z,972.34
2019-04-26T00:16:02.995Z,972.28
2019-04-26T00:17:00.885Z,972.22
2019-04-26T00:18:00.991Z,972.24
2019-04-26T00:19:00.886Z,972.24
2019-04-26T00:20:00.868Z,972.26
2019-04-26T00:21:00.889Z,972.30
2019-04-26T00:22:00.828Z,972.30
2019-04-26T00:23:02.877Z,972.30
2019-04-26T00:24:00.829Z,972.27
2019-04-26T00:25:00.799Z,972.24
2019-04-26T00:26:00.791Z,972.28
2019-04-26T00:27:00.801Z,972.24
2019-04-26T00:28:00.771Z,972.25
2019-04-26T00:29:00.871Z,972.22
2019-04-26T00:30:00.741Z,972.23
2019-04-26T00:31:02.823Z,972.29
2019-04-26T00:32:00.734Z,972.27
2019-04-26T00:33:02.744Z,972.27
2019-04-26T00:34:00.696Z,972.32
2019-04-26T00:35:00.796Z,972.30
2019-04-26T00:36:00.685Z,972.31
2019-04-26T00:37:01.697Z,972.31
2019-04-26T00:38:00.647Z,972.30
2019-04-26T00:39:00.722Z,972.28
2019-04-26T00:40:00.658Z,972.21
2019-04-26T00:41:00.645Z,972.24
2019-04-26T00:42:00.610Z,972.26
2019-04-26T00:43:01.308Z,972.28
2019-04-26T00:44:00.580Z,972.27
2019-04-26T00:45:01.690Z,972.36
2019-04-26T00:46:00.570Z,972.33
2019-04-26T00:47:00.661Z,972.36
2019-04-26T00:48:00.542Z,972.42
2019-04-26T00:49:00.592Z,972.39
2019-04-26T00:50:00.532Z,972.41
2019-04-26T00:51:00.542Z,972.32
2019-04-26T00:52:00.497Z,972.33
2019-04-26T00:53:00.575Z,972.27
2019-04-26T00:54:00.475Z,972.28
2019-04-26T00:55:00.546Z,972.29
2019-04-26T00:56:00.445Z,972.27
2019-04-26T00:57:00.446Z,972.20
2019-04-26T00:58:00.438Z,972.22
2019-04-26T00:59:00.468Z,972.22
2019-04-26T01:00:00.422Z,972.23
2019-04-26T01:01:00.408Z,972.22
2019-04-26T01:02:00.389Z,972.25
2019-04-26T01:03:00.449Z,972.25
2019-04-26T01:04:00.360Z,972.24
2019-04-26T01:05:01.451Z,972.22
2019-04-26T01:06:00.487Z,972.20
2019-04-26T01:07:00.422Z,972.21
2019-04-26T01:08:00.392Z,972.18
2019-04-26T01:09:00.313Z,972.24
2019-04-26T01:10:00.374Z,972.22
2019-04-26T01:11:00.274Z,972.21
2019-04-26T01:12:00.365Z,972.27
2019-04-26T01:13:00.336Z,972.25
2019-04-26T01:14:00.246Z,972.25
2019-04-26T01:15:00.306Z,972.26
2019-04-26T01:16:00.216Z,972.29
2019-04-26T01:17:00.311Z,972.31
2019-04-26T01:18:00.207Z,972.35
2019-04-26T01:19:00.239Z,972.33
2019-04-26T01:20:00.189Z,972.34
2019-04-26T01:21:00.280Z,972.32
2019-04-26T01:22:00.170Z,972.32
2019-04-26T01:23:01.234Z,972.34
2019-04-26T01:24:00.181Z,972.30
2019-04-26T01:25:00.144Z,972.29
2019-04-26T01:26:01.134Z,972.33
2019-04-26T01:27:00.093Z,972.30
2019-04-26T01:28:00.153Z,972.34
2019-04-26T01:29:00.074Z,972.36
2019-04-26T01:30:01.154Z,972.35
2019-04-26T01:31:00.059Z,972.33
2019-04-26T01:32:00.126Z,972.32
2019-04-26T01:33:00.036Z,972.28
2019-04-26T01:34:01.076Z,972.27
2019-04-26T01:35:00.030Z,972.32
2019-04-26T01:36:12.479Z,972.30
2019-04-26T01:37:00.988Z,972.31
2019-04-26T01:38:00.030Z,972.34
2019-04-26T01:38:59.969Z,972.39
2019-04-26T01:39:59.979Z,972.36
2019-04-26T01:40:59.940Z,972.37
2019-04-26T01:42:01.021Z,972.35
2019-04-26T01:42:59.933Z,972.37
2019-04-26T01:43:59.944Z,972.39
2019-04-26T01:44:59.923Z,972.45
2019-04-26T01:45:59.973Z,972.37
2019-04-26T01:46:59.883Z,972.36
2019-04-26T01:47:59.914Z,972.39
2019-04-26T01:48:59.854Z,972.42
2019-04-26T01:49:59.945Z,972.40
2019-04-26T01:50:59.855Z,972.44
2019-04-26T01:51:59.887Z,972.54
2019-04-26T01:52:59.808Z,972.48
2019-04-26T01:54:00.847Z,972.50
2019-04-26T01:54:59.801Z,972.47
2019-04-26T01:55:59.798Z,972.48
2019-04-26T01:56:59.760Z,972.53
2019-04-26T01:57:59.799Z,972.54
2019-04-26T01:58:59.750Z,972.56
2019-04-26T01:59:59.820Z,972.54
2019-04-26T02:00:59.731Z,972.53
2019-04-26T02:01:59.761Z,972.54
2019-04-26T02:02:59.702Z,972.51
2019-04-26T02:04:00.722Z,972.53
2019-04-26T02:04:59.675Z,972.55
2019-04-26T02:05:59.793Z,972.60
2019-04-26T02:06:59.704Z,972.60
2019-04-26T02:07:59.655Z,972.58
2019-04-26T02:08:59.747Z,972.59
2019-04-26T02:09:59.627Z,972.60
2019-04-26T02:10:59.727Z,972.55
2019-04-26T02:11:59.587Z,972.54
2019-04-26T02:12:59.609Z,972.56
2019-04-26T02:13:59.578Z,972.56
2019-04-26T02:14:59.648Z,972.63
2019-04-26T02:15:59.562Z,972.58
2019-04-26T02:17:00.609Z,972.62
2019-04-26T02:17:59.561Z,972.62
2019-04-26T02:18:59.510Z,972.68
2019-04-26T02:19:59.591Z,972.74
2019-04-26T02:20:59.511Z,972.73
2019-04-26T02:22:00.553Z,972.76
2019-04-26T02:22:59.502Z,972.77
2019-04-26T02:23:59.456Z,972.77
2019-04-26T02:25:01.479Z,972.81
2019-04-26T02:25:59.454Z,972.81
2019-04-26T02:26:59.466Z,972.76
2019-04-26T02:27:59.415Z,972.77
2019-04-26T02:28:59.506Z,972.80
2019-04-26T02:29:59.397Z,972.83
2019-04-26T02:30:59.478Z,972.91
2019-04-26T02:31:59.370Z,972.88
2019-04-26T02:32:59.480Z,972.87
2019-04-26T02:34:00.370Z,972.86
2019-04-26T02:34:59.330Z,972.90
2019-04-26T02:36:00.439Z,972.86
2019-04-26T02:36:59.372Z,972.91
2019-04-26T02:37:59.421Z,972.89
2019-04-26T02:39:00.400Z,972.92
2019-04-26T02:39:59.282Z,972.92
2019-04-26T02:41:00.353Z,972.85
2019-04-26T02:41:59.272Z,972.90
2019-04-26T02:43:00.274Z,972.85
2019-04-26T02:43:59.245Z,972.84
2019-04-26T02:44:59.295Z,972.87
2019-04-26T02:45:59.216Z,972.91
2019-04-26T02:46:59.266Z,972.88
2019-04-26T02:47:59.196Z,972.85
2019-04-26T02:48:59.267Z,972.89
2019-04-26T02:49:59.167Z,972.88
2019-04-26T02:51:01.251Z,972.89
2019-04-26T02:51:59.169Z,972.83
2019-04-26T02:52:59.250Z,972.89
2019-04-26T02:53:59.120Z,972.85
2019-04-26T02:54:59.112Z,972.81
2019-04-26T02:55:59.116Z,972.86
2019-04-26T02:56:59.150Z,972.85
2019-04-26T02:57:59.073Z,972.88
2019-04-26T02:59:00.181Z,972.89
2019-04-26T02:59:59.063Z,972.96
2019-04-26T03:00:59.063Z,972.93
2019-04-26T03:01:59.097Z,972.90
2019-04-26T03:02:59.037Z,972.92
2019-04-26T03:04:01.035Z,972.97
2019-04-26T03:04:59.025Z,972.94
2019-04-26T03:05:58.985Z,972.94
2019-04-26T03:07:03.293Z,972.97
2019-04-26T03:07:59.063Z,972.98
2019-04-26T03:08:58.969Z,973.00
2019-04-26T03:10:01.040Z,973.02
2019-04-26T03:10:58.930Z,972.96
2019-04-26T03:11:58.949Z,972.96
2019-04-26T03:13:00.939Z,972.95
2019-04-26T03:13:58.900Z,972.95
2019-04-26T03:15:13.185Z,972.93
2019-04-26T03:15:59.885Z,972.89
2019-04-26T03:16:58.894Z,972.87
2019-04-26T03:17:58.852Z,972.86
2019-04-26T03:18:58.913Z,972.88
2019-04-26T03:19:58.844Z,972.98
2019-04-26T03:20:58.844Z,972.98
2019-04-26T03:21:59.834Z,973.01
2019-04-26T03:22:58.825Z,973.01
2019-04-26T03:23:59.898Z,973.06
2019-04-26T03:24:58.775Z,973.04
2019-04-26T03:26:00.826Z,973.04
2019-04-26T03:26:58.757Z,973.09
2019-04-26T03:27:58.767Z,973.06
2019-04-26T03:28:59.808Z,973.03
2019-04-26T03:30:18.542Z,973.06
2019-04-26T03:30:59.719Z,973.12
2019-04-26T03:31:58.789Z,973.16
2019-04-26T03:32:58.901Z,973.23
2019-04-26T03:33:58.797Z,973.22
2019-04-26T03:34:58.794Z,973.21
2019-04-26T03:35:58.916Z,973.21
2019-04-26T03:36:58.731Z,973.14
2019-04-26T03:37:59.673Z,973.16
2019-04-26T03:38:58.623Z,973.14
2019-04-26T03:39:58.633Z,973.08
2019-04-26T03:40:58.593Z,973.13
2019-04-26T03:41:58.676Z,973.14
2019-04-26T03:42:58.594Z,973.10
2019-04-26T03:43:58.556Z,973.10
2019-04-26T03:44:58.577Z,973.13
2019-04-26T03:45:58.548Z,973.14
2019-04-26T03:46:58.613Z,973.12
2019-04-26T03:47:58.531Z,973.13
2019-04-26T03:48:58.509Z,973.14
2019-04-26T03:49:58.500Z,973.14
2019-04-26T03:50:58.579Z,973.17
2019-04-26T03:51:58.469Z,973.20
2019-04-26T03:52:58.560Z,973.30
2019-04-26T03:53:59.512Z,973.31
2019-04-26T03:54:58.442Z,973.33
2019-04-26T03:55:58.522Z,973.34
2019-04-26T03:56:58.424Z,973.43
2019-04-26T03:57:58.513Z,973.38
2019-04-26T03:58:58.399Z,973.42
2019-04-26T03:59:58.384Z,973.34
2019-04-26T04:00:58.463Z,973.37
2019-04-26T04:01:58.365Z,973.38
2019-04-26T04:02:58.397Z,973.43
2019-04-26T04:03:58.356Z,973.43
2019-04-26T04:04:58.337Z,973.46
2019-04-26T04:05:58.397Z,973.49
2019-04-26T04:07:04.759Z,973.44
2019-04-26T04:07:59.384Z,973.41
2019-04-26T04:08:58.299Z,973.42
2019-04-26T04:09:58.378Z,973.41
2019-04-26T04:10:58.259Z,973.43
2019-04-26T04:12:11.216Z,973.49
2019-04-26T04:12:59.252Z,973.52
2019-04-26T04:13:58.345Z,973.58
2019-04-26T04:14:58.335Z,973.65
2019-04-26T04:15:58.203Z,973.71
2019-04-26T04:16:58.254Z,973.72
2019-04-26T04:17:58.175Z,973.74
2019-04-26T04:18:58.233Z,973.73
2019-04-26T04:19:58.163Z,973.83
2019-04-26T04:20:58.167Z,973.83
2019-04-26T04:21:58.136Z,973.90
2019-04-26T04:22:58.156Z,973.89
2019-04-26T04:23:58.137Z,973.88
2019-04-26T04:24:58.207Z,973.89
2019-04-26T04:25:58.091Z,973.89
2019-04-26T04:26:58.138Z,973.88
2019-04-26T04:27:58.079Z,973.91
2019-04-26T04:28:58.130Z,973.93
2019-04-26T04:29:58.046Z,973.89
2019-04-26T04:31:00.050Z,973.88
2019-04-26T04:31:58.086Z,973.84
2019-04-26T04:32:58.011Z,973.81
2019-04-26T04:33:58.052Z,973.88
2019-04-26T04:34:57.989Z,973.81
2019-04-26T04:35:59.073Z,973.76
2019-04-26T04:36:58.023Z,973.82
2019-04-26T04:38:08.760Z,973.86
2019-04-26T04:39:11.282Z,973.86
2019-04-26T04:39:58.934Z,973.85
2019-04-26T04:40:59.015Z,973.83
2019-04-26T04:41:57.905Z,973.87
2019-04-26T04:42:57.970Z,973.86
2019-04-26T04:43:57.947Z,973.85
2019-04-26T04:44:57.873Z,973.85
2019-04-26T04:45:57.974Z,973.85
2019-04-26T04:46:57.858Z,973.89
2019-04-26T04:47:57.847Z,973.92
2019-04-26T04:48:57.872Z,973.95
2019-04-26T04:49:57.813Z,973.92
2019-04-26T04:50:57.870Z,973.89
2019-04-26T04:51:57.828Z,973.90
2019-04-26T04:52:57.771Z,973.87
2019-04-26T04:53:57.794Z,973.88
2019-04-26T04:55:06.676Z,973.86
2019-04-26T04:55:58.743Z,973.91
2019-04-26T04:56:57.774Z,973.93
2019-04-26T04:57:57.714Z,973.93
2019-04-26T04:58:57.714Z,973.96
2019-04-26T04:59:57.824Z,974.01
2019-04-26T05:00:57.685Z,973.96
2019-04-26T05:01:58.736Z,974.02
2019-04-26T05:02:57.667Z,974.03
2019-04-26T05:03:57.646Z,973.99
2019-04-26T05:04:57.681Z,974.00
2019-04-26T05:06:07.308Z,974.05
2019-04-26T05:06:58.618Z,974.07
2019-04-26T05:08:06.496Z,974.08
2019-04-26T05:08:58.609Z,974.14
2019-04-26T05:09:57.610Z,974.14
2019-04-26T05:10:57.631Z,974.16
2019-04-26T05:11:57.563Z,974.16
2019-04-26T05:12:57.560Z,974.11
2019-04-26T05:13:57.542Z,974.15
2019-04-26T05:14:57.562Z,974.11
2019-04-26T05:15:59.613Z,974.11
2019-04-26T05:16:57.503Z,974.17
2019-04-26T05:17:58.524Z,974.16
2019-04-26T05:18:57.475Z,974.18
2019-04-26T05:19:57.474Z,974.28
2019-04-26T05:20:57.455Z,974.28
2019-04-26T05:21:57.475Z,974.31
2019-04-26T05:22:57.426Z,974.31
2019-04-26T05:23:57.507Z,974.26
2019-04-26T05:24:57.427Z,974.24
2019-04-26T05:25:57.409Z,974.25
2019-04-26T05:26:57.429Z,974.26
2019-04-26T05:27:57.369Z,974.25
2019-04-26T05:28:58.480Z,974.27
2019-04-26T05:29:57.371Z,974.27
2019-04-26T05:30:57.340Z,974.26
2019-04-26T05:31:57.330Z,974.27
2019-04-26T05:32:59.373Z,974.31
2019-04-26T05:33:57.311Z,974.31
2019-04-26T05:34:57.404Z,974.32
2019-04-26T05:35:57.423Z,974.29
2019-04-26T05:36:57.284Z,974.29
2019-04-26T05:37:57.375Z,974.29
2019-04-26T05:38:57.605Z,974.29
2019-04-26T05:39:57.455Z,974.31
2019-04-26T05:40:57.801Z,974.33
2019-04-26T05:41:58.256Z,974.31
2019-04-26T05:42:58.009Z,974.32
2019-04-26T05:43:58.016Z,974.32
2019-04-26T05:44:57.207Z,974.31
2019-04-26T05:45:58.072Z,974.32
2019-04-26T05:46:57.886Z,974.39
2019-04-26T05:48:09.333Z,974.36
2019-04-26T05:48:58.140Z,974.39
2019-04-26T05:49:58.005Z,974.41
2019-04-26T05:50:57.887Z,974.46
2019-04-26T05:51:57.832Z,974.49
2019-04-26T05:52:57.245Z,974.49
2019-04-26T05:53:58.183Z,974.55
2019-04-26T05:54:58.178Z,974.53
2019-04-26T05:55:58.030Z,974.56
2019-04-26T05:56:57.054Z,974.56
2019-04-26T05:57:57.125Z,974.54
2019-04-26T05:59:00.177Z,974.55
2019-04-26T05:59:57.066Z,974.50
2019-04-26T06:00:57.865Z,974.55
2019-04-26T06:01:57.096Z,974.54
2019-04-26T06:02:56.977Z,974.49
2019-04-26T06:03:57.037Z,974.56
2019-04-26T06:04:57.185Z,974.53
2019-04-26T06:05:57.017Z,974.58
2019-04-26T06:06:57.268Z,974.57
2019-04-26T06:07:56.930Z,974.57
2019-04-26T06:08:57.458Z,974.56
2019-04-26T06:09:58.991Z,974.59
2019-04-26T06:10:57.819Z,974.59
2019-04-26T06:11:56.982Z,974.64
2019-04-26T06:12:58.758Z,974.62
2019-04-26T06:13:57.757Z,974.70
2019-04-26T06:14:56.883Z,974.70
2019-04-26T06:15:57.988Z,974.70
2019-04-26T06:16:56.982Z,974.68
2019-04-26T06:17:57.305Z,974.65
2019-04-26T06:18:57.303Z,974.62
2019-04-26T06:19:57.298Z,974.62
2019-04-26T06:20:57.857Z,974.60
2019-04-26T06:21:57.902Z,974.58
2019-04-26T06:22:58.208Z,974.57
2019-04-26T06:23:57.814Z,974.53
2019-04-26T06:24:56.759Z,974.50
2019-04-26T06:25:58.294Z,974.48
2019-04-26T06:27:09.305Z,974.42
2019-04-26T06:27:58.390Z,974.43
2019-04-26T06:28:56.670Z,974.51
2019-04-26T06:29:56.665Z,974.53
2019-04-26T06:30:57.254Z,974.59
2019-04-26T06:31:56.642Z,974.56
2019-04-26T06:33:03.176Z,974.55
2019-04-26T06:33:58.712Z,974.53
2019-04-26T06:34:57.197Z,974.53
2019-04-26T06:35:57.274Z,974.57
2019-04-26T06:36:57.592Z,974.55
2019-04-26T06:37:57.347Z,974.58
2019-04-26T06:38:56.567Z,974.58
2019-04-26T06:39:56.607Z,974.51
2019-04-26T06:40:56.542Z,974.53
2019-04-26T06:41:56.761Z,974.50
2019-04-26T06:42:56.519Z,974.48
2019-04-26T06:43:56.549Z,974.53
2019-04-26T06:44:56.509Z,974.49
2019-04-26T06:45:56.895Z,974.49
2019-04-26T06:46:57.649Z,974.48
2019-04-26T06:47:56.925Z,974.49
2019-04-26T06:48:57.070Z,974.47
2019-04-26T06:49:57.642Z,974.49
2019-04-26T06:50:58.383Z,974.50
2019-04-26T06:51:57.098Z,974.54
2019-04-26T06:52:56.799Z,974.54
2019-04-26T06:53:57.203Z,974.50
2019-04-26T06:54:57.793Z,974.48
2019-04-26T06:55:56.505Z,974.45
2019-04-26T06:56:57.437Z,974.44
2019-04-26T06:57:59.402Z,974.46
2019-04-26T06:58:57.874Z,974.49
2019-04-26T06:59:57.415Z,974.49
2019-04-26T07:00:57.451Z,974.47
2019-04-26T07:01:57.559Z,974.52
2019-04-26T07:02:57.439Z,974.55
2019-04-26T07:03:58.181Z,974.47
2019-04-26T07:04:56.297Z,974.40
2019-04-26T07:05:56.251Z,974.39
2019-04-26T07:06:56.368Z,974.38
2019-04-26T07:07:56.233Z,974.40
2019-04-26T07:08:57.673Z,974.37
2019-04-26T07:09:56.193Z,974.45
2019-04-26T07:10:56.229Z,974.43
2019-04-26T07:11:56.204Z,974.44
2019-04-26T07:12:56.237Z,974.49
2019-04-26T07:13:56.160Z,974.48
2019-04-26T07:14:56.167Z,974.45
2019-04-26T07:15:56.587Z,974.47
2019-04-26T07:16:56.140Z,974.46
2019-04-26T07:17:56.259Z,974.47
2019-04-26T07:18:56.101Z,974.47
2019-04-26T07:19:58.438Z,974.43
2019-04-26T07:20:56.079Z,974.44
2019-04-26T07:21:56.191Z,974.47
2019-04-26T07:22:56.061Z,974.48
2019-04-26T07:23:56.081Z,974.48
2019-04-26T07:24:56.032Z,974.45
2019-04-26T07:25:56.122Z,974.46
2019-04-26T07:26:56.033Z,974.43
2019-04-26T07:28:03.742Z,974.42
2019-04-26T07:28:56.987Z,974.36
2019-04-26T07:29:56.130Z,974.38
2019-04-26T07:30:55.976Z,974.34
2019-04-26T07:31:55.966Z,974.41
2019-04-26T07:32:55.937Z,974.40
2019-04-26T07:33:58.013Z,974.47
2019-04-26T07:34:55.929Z,974.46
2019-04-26T07:35:58.910Z,974.52
2019-04-26T07:36:56.011Z,974.57
2019-04-26T07:37:55.900Z,974.61
2019-04-26T07:39:09.050Z,974.55
2019-04-26T07:39:56.861Z,974.52
2019-04-26T07:40:55.945Z,974.53
2019-04-26T07:41:55.873Z,974.59
2019-04-26T07:42:56.893Z,974.57
2019-04-26T07:43:55.814Z,974.56
2019-04-26T07:44:56.834Z,974.56
2019-04-26T07:45:55.805Z,974.56
2019-04-26T07:46:55.895Z,974.50
2019-04-26T07:47:55.778Z,974.50
2019-04-26T07:48:56.799Z,974.56
2019-04-26T07:49:55.756Z,974.47
2019-04-26T07:50:56.850Z,974.52
2019-04-26T07:51:55.739Z,974.47
2019-04-26T07:52:55.728Z,974.47
2019-04-26T07:53:56.761Z,974.46
2019-04-26T07:54:55.690Z,974.45
2019-04-26T07:55:55.761Z,974.48
2019-04-26T07:56:55.695Z,974.45
2019-04-26T07:57:55.681Z,974.49
2019-04-26T07:58:56.693Z,974.43
2019-04-26T07:59:55.633Z,974.50
2019-04-26T08:00:55.704Z,974.51
2019-04-26T08:01:55.624Z,974.45
2019-04-26T08:02:55.609Z,974.44
2019-04-26T08:03:55.605Z,974.43
2019-04-26T08:04:55.686Z,974.44
2019-04-26T08:05:55.567Z,974.47
2019-04-26T08:06:56.679Z,974.47
2019-04-26T08:07:55.558Z,974.41
2019-04-26T08:08:56.578Z,974.41
2019-04-26T08:09:59.899Z,974.38
2019-04-26T08:10:55.589Z,974.38
2019-04-26T08:11:55.510Z,974.47
2019-04-26T08:12:55.560Z,974.43
2019-04-26T08:13:55.481Z,974.44
2019-04-26T08:14:57.502Z,974.39
2019-04-26T08:15:55.463Z,974.35
2019-04-26T08:16:56.514Z,974.32
2019-04-26T08:17:55.454Z,974.31
2019-04-26T08:18:55.427Z,974.29
2019-04-26T08:19:57.575Z,974.38
2019-04-26T08:20:55.465Z,974.32
2019-04-26T08:21:55.395Z,974.32
2019-04-26T08:22:57.507Z,974.38
2019-04-26T08:23:56.531Z,974.36
2019-04-26T08:24:55.358Z,974.28
2019-04-26T08:25:55.410Z,974.35
2019-04-26T08:27:08.076Z,974.32
2019-04-26T08:27:56.339Z,974.29
2019-04-26T08:28:56.674Z,974.28
2019-04-26T08:29:55.311Z,974.31
2019-04-26T08:30:55.352Z,974.28
2019-04-26T08:31:57.839Z,974.28
2019-04-26T08:32:55.333Z,974.32
2019-04-26T08:33:55.273Z,974.35
2019-04-26T08:34:55.243Z,974.38
2019-04-26T08:35:55.369Z,974.38
2019-04-26T08:36:57.382Z,974.43
2019-04-26T08:37:57.480Z,974.39
2019-04-26T08:38:55.196Z,974.43
2019-04-26T08:39:55.186Z,974.43
2019-04-26T08:40:55.239Z,974.47
2019-04-26T08:41:55.199Z,974.51
2019-04-26T08:42:57.447Z,974.56
2019-04-26T08:43:55.845Z,974.56
2019-04-26T08:44:55.140Z,974.50
2019-04-26T08:46:02.861Z,974.56
2019-04-26T08:46:57.074Z,974.61
2019-04-26T08:47:56.171Z,974.58
2019-04-26T08:48:58.075Z,974.59
2019-04-26T08:49:55.072Z,974.60
2019-04-26T08:50:55.063Z,974.63
2019-04-26T08:51:55.967Z,974.58
2019-04-26T08:52:55.057Z,974.67
2019-04-26T08:53:55.055Z,974.68
2019-04-26T08:54:55.017Z,974.63
2019-04-26T08:55:55.017Z,974.69
2019-04-26T08:56:55.027Z,974.69
2019-04-26T08:57:54.988Z,974.64
2019-04-26T08:58:54.999Z,974.64
2019-04-26T08:59:54.972Z,974.68
2019-04-26T09:00:54.999Z,974.61
2019-04-26T09:01:57.012Z,974.63
2019-04-26T09:02:54.942Z,974.63
2019-04-26T09:03:55.051Z,974.64
2019-04-26T09:04:54.902Z,974.72
2019-04-26T09:05:54.934Z,974.71
2019-04-26T09:06:54.894Z,974.68
2019-04-26T09:07:57.622Z,974.68
2019-04-26T09:08:54.884Z,974.70
2019-04-26T09:09:57.420Z,974.75
2019-04-26T09:10:55.847Z,974.79
2019-04-26T09:11:59.836Z,974.78
2019-04-26T09:12:55.840Z,974.78
2019-04-26T09:13:54.827Z,974.79
2019-04-26T09:14:55.878Z,974.74
2019-04-26T09:15:54.797Z,974.72
2019-04-26T09:16:54.771Z,974.72
2019-04-26T09:17:54.769Z,974.75
2019-04-26T09:18:59.389Z,974.69
2019-04-26T09:19:54.730Z,974.62
2019-04-26T09:20:54.768Z,974.70
2019-04-26T09:21:54.775Z,974.76
2019-04-26T09:22:56.639Z,974.79
2019-04-26T09:23:55.733Z,974.73
2019-04-26T09:24:55.103Z,974.75
2019-04-26T09:25:59.433Z,974.74
2019-04-26T09:26:54.656Z,974.72
2019-04-26T09:27:54.655Z,974.75
2019-04-26T09:28:56.614Z,974.69
2019-04-26T09:29:54.727Z,974.71
2019-04-26T09:30:54.628Z,974.70
2019-04-26T09:31:55.639Z,974.66
2019-04-26T09:32:54.798Z,974.65
2019-04-26T09:33:54.579Z,974.61
2019-04-26T09:34:54.661Z,974.61
2019-04-26T09:35:54.571Z,974.61
2019-04-26T09:36:54.662Z,974.75
2019-04-26T09:37:54.531Z,974.74
2019-04-26T09:38:54.526Z,974.76
2019-04-26T09:39:54.606Z,974.75
2019-04-26T09:40:56.254Z,974.79
2019-04-26T09:41:55.514Z,974.75
2019-04-26T09:42:54.474Z,974.71
2019-04-26T09:43:54.902Z,974.72
2019-04-26T09:44:56.792Z,974.72
2019-04-26T09:45:54.458Z,974.70
2019-04-26T09:46:54.538Z,974.78
2019-04-26T09:47:54.428Z,974.80
2019-04-26T09:48:54.422Z,974.73
2019-04-26T09:49:54.474Z,974.79
2019-04-26T09:50:54.510Z,974.82
2019-04-26T09:51:54.381Z,974.83
2019-04-26T09:52:54.441Z,974.89
2019-04-26T09:53:54.352Z,974.94
2019-04-26T09:54:54.362Z,974.94
2019-04-26T09:55:54.453Z,974.95
2019-04-26T09:56:54.314Z,974.93
2019-04-26T09:57:57.013Z,974.95
2019-04-26T09:58:54.305Z,974.88
2019-04-26T09:59:54.310Z,974.88
2019-04-26T10:00:54.571Z,974.88
2019-04-26T10:01:55.381Z,974.86
2019-04-26T10:02:54.257Z,974.85
2019-04-26T10:04:01.868Z,974.84
2019-04-26T10:04:54.309Z,974.81
2019-04-26T10:05:55.879Z,974.81
2019-04-26T10:06:54.300Z,974.84
2019-04-26T10:07:54.191Z,974.93
2019-04-26T10:08:54.231Z,974.84
2019-04-26T10:09:56.490Z,974.86
2019-04-26T10:10:56.500Z,974.88
2019-04-26T10:11:54.164Z,974.85
2019-04-26T10:12:54.214Z,974.89
2019-04-26T10:13:54.141Z,974.90
2019-04-26T10:14:54.146Z,974.86
2019-04-26T10:15:58.013Z,974.88
2019-04-26T10:16:55.206Z,974.90
2019-04-26T10:17:54.111Z,974.92
2019-04-26T10:18:58.406Z,974.91
2019-04-26T10:19:54.066Z,974.97
2019-04-26T10:20:54.073Z,974.91
2019-04-26T10:21:55.160Z,974.99
2019-04-26T10:22:54.030Z,974.97
2019-04-26T10:23:54.060Z,975.00
2019-04-26T10:24:54.012Z,974.95
2019-04-26T10:25:54.002Z,974.93
2019-04-26T10:26:55.448Z,974.97
2019-04-26T10:27:54.032Z,975.00
2019-04-26T10:28:53.964Z,974.95
2019-04-26T10:29:56.589Z,974.95
2019-04-26T10:30:54.961Z,975.00
2019-04-26T10:31:54.006Z,974.98
2019-04-26T10:32:53.915Z,974.97
2019-04-26T10:33:53.950Z,975.00
2019-04-26T10:34:53.902Z,975.01
2019-04-26T10:35:56.705Z,974.99
2019-04-26T10:36:56.771Z,975.04
2019-04-26T10:37:53.921Z,975.06
2019-04-26T10:38:54.494Z,974.97
2019-04-26T10:39:53.851Z,974.99
2019-04-26T10:40:53.840Z,974.98
2019-04-26T10:41:53.812Z,975.01
2019-04-26T10:42:53.853Z,975.03
2019-04-26T10:43:53.803Z,974.97
2019-04-26T10:44:53.896Z,974.99
2019-04-26T10:45:54.852Z,975.05
2019-04-26T10:46:55.585Z,975.03
2019-04-26T10:47:53.744Z,975.07
2019-04-26T10:48:53.768Z,975.15
2019-04-26T10:49:54.346Z,975.11
2019-04-26T10:50:53.847Z,975.02
2019-04-26T10:51:53.698Z,975.08
2019-04-26T10:52:55.551Z,975.11
2019-04-26T10:53:53.709Z,975.07
2019-04-26T10:54:53.679Z,975.08
2019-04-26T10:55:53.781Z,975.10
2019-04-26T10:56:54.999Z,975.01
2019-04-26T10:57:53.642Z,975.05
2019-04-26T10:58:53.632Z,975.00
2019-04-26T10:59:53.723Z,975.02
2019-04-26T11:00:54.110Z,975.01
2019-04-26T11:01:56.873Z,975.05
2019-04-26T11:02:53.578Z,975.09
2019-04-26T11:03:53.584Z,975.15
2019-04-26T11:04:53.566Z,975.07
2019-04-26T11:05:55.247Z,975.10
2019-04-26T11:06:53.576Z,975.08
2019-04-26T11:07:55.608Z,975.10
2019-04-26T11:08:53.518Z,975.16
2019-04-26T11:09:53.611Z,975.24
2019-04-26T11:10:53.489Z,975.19
2019-04-26T11:11:53.583Z,975.25
2019-04-26T11:12:53.471Z,975.27
2019-04-26T11:13:53.454Z,975.20
2019-04-26T11:14:56.962Z,975.24
2019-04-26T11:15:54.536Z,975.28
2019-04-26T11:16:53.455Z,975.29
2019-04-26T11:17:53.444Z,975.31
2019-04-26T11:18:53.670Z,975.35
2019-04-26T11:19:53.485Z,975.42
2019-04-26T11:20:53.386Z,975.32
2019-04-26T11:21:54.922Z,975.42
2019-04-26T11:22:53.361Z,975.39
2019-04-26T11:23:53.457Z,975.49
2019-04-26T11:24:53.908Z,975.45
2019-04-26T11:25:53.439Z,975.48
2019-04-26T11:26:53.330Z,975.49
2019-04-26T11:27:53.329Z,975.48
2019-04-26T11:28:55.837Z,975.41
2019-04-26T11:29:54.197Z,975.55
2019-04-26T11:30:57.018Z,975.44
2019-04-26T11:31:54.209Z,975.48
2019-04-26T11:32:53.244Z,975.54
2019-04-26T11:34:04.718Z,975.60
2019-04-26T11:34:58.174Z,975.53
2019-04-26T11:35:53.268Z,975.50
2019-04-26T11:36:53.215Z,975.51
2019-04-26T11:37:55.154Z,975.46
2019-04-26T11:38:53.191Z,975.47
2019-04-26T11:39:54.274Z,975.47
2019-04-26T11:41:05.354Z,975.47
2019-04-26T11:41:54.157Z,975.45
2019-04-26T11:42:53.158Z,975.58
2019-04-26T11:43:54.566Z,975.52
2019-04-26T11:45:05.448Z,975.56
2019-04-26T11:46:03.806Z,975.57
2019-04-26T11:46:54.114Z,975.58
2019-04-26T11:47:59.942Z,975.57
2019-04-26T11:48:58.852Z,975.58
2019-04-26T11:49:55.144Z,975.55
2019-04-26T11:50:53.655Z,975.60
2019-04-26T11:51:54.125Z,975.64
2019-04-26T11:52:53.024Z,975.64
2019-04-26T11:53:54.323Z,975.64
2019-04-26T11:54:55.119Z,975.64
2019-04-26T11:55:53.037Z,975.66
2019-04-26T11:56:53.017Z,975.67
2019-04-26T11:57:53.069Z,975.66
2019-04-26T11:58:56.920Z,975.61
2019-04-26T11:59:54.029Z,975.65
2019-04-26T12:00:52.932Z,975.69
2019-04-26T12:01:52.910Z,975.66
2019-04-26T12:02:52.922Z,975.67
2019-04-26T12:03:55.606Z,975.66
2019-04-26T12:04:55.082Z,975.63
2019-04-26T12:05:52.962Z,975.66
2019-04-26T12:06:52.855Z,975.65
2019-04-26T12:07:52.939Z,975.62
2019-04-26T12:08:52.914Z,975.59
2019-04-26T12:09:52.825Z,975.63
2019-04-26T12:10:54.905Z,975.64
2019-04-26T12:12:03.978Z,975.60
2019-04-26T12:13:05.175Z,975.64
2019-04-26T12:13:55.371Z,975.64
2019-04-26T12:14:53.858Z,975.70
2019-04-26T12:15:52.770Z,975.66
2019-04-26T12:16:59.148Z,975.71
2019-04-26T12:17:58.622Z,975.68
2019-04-26T12:18:52.731Z,975.73
2019-04-26T12:19:53.406Z,975.70
2019-04-26T12:20:52.722Z,975.75
2019-04-26T12:21:53.776Z,975.73
2019-04-26T12:22:52.704Z,975.75
2019-04-26T12:23:55.601Z,975.73
2019-04-26T12:24:52.659Z,975.77
2019-04-26T12:25:52.732Z,975.81
2019-04-26T12:26:55.984Z,975.86
2019-04-26T12:27:53.531Z,975.87